createdAt,value
2024-05-09T00:01:38.599Z,9.15
2024-05-09T00:04:08.853Z,9.68
2024-05-09T00:06:39.101Z,9.25
2024-05-09T00:09:11.808Z,8.73
2024-05-09T00:11:42.036Z,9.73
2024-05-09T00:14:12.189Z,10.38
2024-05-09T00:16:42.449Z,10.07
2024-05-09T00:19:13.054Z,8.88
2024-05-09T00:21:45.865Z,9.57
2024-05-09T00:24:18.596Z,9.32
2024-05-09T00:26:48.846Z,8.88
2024-05-09T00:29:19.372Z,9.80
2024-05-09T00:31:49.923Z,10.15
2024-05-09T00:34:20.282Z,9.55
2024-05-09T00:36:50.354Z,10.43
2024-05-09T00:39:23.147Z,10.93
2024-05-09T00:41:53.172Z,10.18
2024-05-09T00:44:23.480Z,11.38
2024-05-09T00:46:55.450Z,11.00
2024-05-09T00:49:26.594Z,10.73
2024-05-09T00:51:58.271Z,10.65
2024-05-09T00:54:31.164Z,11.25
2024-05-09T00:57:01.388Z,10.52
2024-05-09T00:59:32.900Z,10.90
2024-05-09T01:02:03.982Z,11.70
2024-05-09T01:04:36.498Z,10.98
2024-05-09T01:07:07.498Z,11.88
2024-05-09T01:09:42.675Z,12.00
2024-05-09T01:12:12.895Z,11.68
2024-05-09T01:14:43.315Z,12.80
2024-05-09T01:17:13.739Z,12.18
2024-05-09T01:19:44.122Z,13.18
2024-05-09T01:22:14.425Z,12.50
2024-05-09T01:24:47.437Z,13.57
2024-05-09T01:27:17.858Z,12.65
2024-05-09T01:29:48.028Z,14.43
2024-05-09T01:32:19.366Z,13.48
2024-05-09T01:34:49.703Z,13.57
2024-05-09T01:37:21.023Z,14.70
2024-05-09T01:39:53.918Z,14.05
2024-05-09T01:42:24.070Z,14.18
2024-05-09T01:44:54.319Z,13.85
2024-05-09T01:47:24.654Z,14.07
2024-05-09T01:49:54.805Z,13.32
2024-05-09T01:52:25.262Z,14.05
2024-05-09T01:54:58.710Z,14.90
2024-05-09T01:57:29.770Z,14.25
2024-05-09T02:00:00.022Z,14.63
2024-05-09T02:02:30.347Z,13.05
2024-05-09T02:05:00.966Z,12.85
2024-05-09T02:07:31.370Z,13.45
2024-05-09T02:10:10.830Z,13.57
2024-05-09T02:12:46.178Z,15.48
2024-05-09T02:15:16.334Z,14.57
2024-05-09T02:17:46.608Z,14.90
2024-05-09T02:20:23.148Z,15.82
2024-05-09T02:23:01.631Z,15.85
2024-05-09T02:25:34.823Z,15.60
2024-05-09T02:28:05.471Z,17.33
2024-05-09T02:30:40.285Z,16.35
2024-05-09T02:33:14.102Z,15.25
2024-05-09T02:35:45.274Z,14.77
2024-05-09T02:38:13.569Z,15.93
2024-05-09T02:40:46.939Z,16.13
2024-05-09T02:43:14.469Z,14.75
2024-05-09T02:45:45.048Z,17.55
2024-05-09T02:48:15.102Z,16.60
2024-05-09T02:50:46.453Z,15.75
2024-05-09T02:53:14.761Z,17.42
2024-05-09T02:55:49.029Z,17.10
2024-05-09T02:58:16.451Z,16.40
2024-05-09T03:00:46.758Z,16.77
2024-05-09T03:03:15.763Z,16.67
2024-05-09T03:05:46.804Z,17.05
2024-05-09T03:08:15.069Z,16.90
2024-05-09T03:10:48.430Z,16.35
2024-05-09T03:13:16.439Z,16.17
2024-05-09T03:15:46.935Z,15.40
2024-05-09T03:18:15.476Z,16.60
2024-05-09T03:20:46.466Z,16.38
2024-05-09T03:23:14.134Z,17.25
2024-05-09T03:25:47.075Z,16.27
2024-05-09T03:28:14.540Z,17.42
2024-05-09T03:30:44.750Z,15.73
2024-05-09T03:33:13.637Z,18.13
2024-05-09T03:35:45.325Z,17.35
2024-05-09T03:38:15.558Z,16.30
2024-05-09T03:40:51.211Z,16.67
2024-05-09T03:43:22.063Z,18.45
2024-05-09T03:45:50.814Z,16.90
2024-05-09T03:48:21.133Z,18.40
2024-05-09T03:50:49.167Z,18.88
2024-05-09T03:53:19.482Z,20.17
2024-05-09T03:55:49.673Z,18.33
2024-05-09T03:58:19.990Z,18.73
2024-05-09T04:00:47.364Z,18.10
2024-05-09T04:03:18.461Z,18.95
2024-05-09T04:05:46.447Z,19.58
2024-05-09T04:08:17.611Z,18.88
2024-05-09T04:10:45.692Z,17.95
2024-05-09T04:13:18.416Z,19.27
2024-05-09T04:15:45.851Z,19.25
2024-05-09T04:18:16.062Z,19.48
2024-05-09T04:20:43.601Z,19.20
2024-05-09T04:23:15.316Z,19.70
2024-05-09T04:25:45.362Z,19.52
2024-05-09T04:28:18.599Z,20.70
2024-05-09T04:30:46.005Z,19.88
2024-05-09T04:33:18.703Z,20.15
2024-05-09T04:35:46.440Z,20.77
2024-05-09T04:38:18.268Z,19.40
2024-05-09T04:40:46.111Z,19.85
2024-05-09T04:43:22.429Z,19.27
2024-05-09T04:45:50.916Z,19.50
2024-05-09T04:48:22.474Z,20.05
2024-05-09T04:50:49.994Z,20.42
2024-05-09T04:53:20.519Z,20.17
2024-05-09T04:55:48.052Z,20.17
2024-05-09T04:58:21.121Z,21.65
2024-05-09T05:00:48.709Z,20.13
2024-05-09T05:03:19.215Z,19.98
2024-05-09T05:05:46.932Z,19.88
2024-05-09T05:08:19.288Z,20.52
2024-05-09T05:10:48.863Z,19.23
2024-05-09T05:13:24.046Z,20.65
2024-05-09T05:15:56.846Z,21.58
2024-05-09T05:18:28.662Z,23.33
2024-05-09T05:20:57.525Z,22.83
2024-05-09T05:23:28.131Z,24.58
2024-05-09T05:25:55.953Z,23.83
2024-05-09T05:28:30.433Z,23.85
2024-05-09T05:30:58.147Z,24.90
2024-05-09T05:33:28.414Z,24.42
2024-05-09T05:35:57.487Z,24.23
2024-05-09T05:38:28.607Z,26.63
2024-05-09T05:40:56.518Z,26.65
2024-05-09T05:43:29.681Z,24.48
2024-05-09T05:45:57.152Z,27.27
2024-05-09T05:48:27.379Z,25.48
2024-05-09T05:50:55.140Z,25.67
2024-05-09T05:53:25.346Z,24.77
2024-05-09T05:55:53.038Z,26.30
2024-05-09T05:58:23.260Z,29.20
2024-05-09T06:00:53.876Z,29.15
2024-05-09T06:03:24.496Z,27.98
2024-05-09T06:05:52.396Z,28.70
2024-05-09T06:08:23.383Z,27.17
2024-05-09T06:10:51.747Z,26.77
2024-05-09T06:13:21.985Z,24.50
2024-05-09T06:15:49.574Z,23.80
2024-05-09T06:18:22.661Z,22.00
2024-05-09T06:20:50.505Z,20.80
2024-05-09T06:23:20.772Z,20.42
2024-05-09T06:25:48.263Z,18.48
2024-05-09T06:28:18.350Z,18.73
2024-05-09T06:30:46.019Z,19.00
2024-05-09T06:33:17.705Z,17.15
2024-05-09T06:35:48.147Z,18.17
2024-05-09T06:38:18.305Z,17.65
2024-05-09T06:40:45.885Z,17.23
2024-05-09T06:43:18.459Z,16.45
2024-05-09T06:45:48.468Z,15.48
2024-05-09T06:48:21.813Z,15.90
2024-05-09T06:50:52.675Z,15.18
2024-05-09T06:53:25.083Z,15.50
2024-05-09T06:55:52.876Z,15.13
2024-05-09T06:58:23.149Z,16.55
2024-05-09T07:00:51.048Z,13.88
2024-05-09T07:03:21.359Z,14.10
2024-05-09T07:05:54.379Z,13.13
2024-05-09T07:08:24.594Z,14.32
2024-05-09T07:10:52.228Z,13.73
2024-05-09T07:13:22.614Z,12.82
2024-05-09T07:15:50.089Z,15.23
2024-05-09T07:18:21.141Z,15.05
2024-05-09T07:20:52.648Z,13.70
2024-05-09T07:23:23.580Z,13.38
2024-05-09T07:25:50.956Z,13.23
2024-05-09T07:28:22.948Z,13.65
2024-05-09T07:30:50.321Z,11.55
2024-05-09T07:33:22.769Z,11.57
2024-05-09T07:35:54.021Z,12.00
2024-05-09T07:38:24.274Z,12.25
2024-05-09T07:40:51.660Z,12.38
2024-05-09T07:43:21.698Z,11.70
2024-05-09T07:45:53.577Z,11.90
2024-05-09T07:53:00.770Z,11.55
2024-05-09T07:53:52.320Z,11.48
2024-05-09T07:56:23.816Z,11.32
2024-05-09T07:58:55.683Z,11.43
2024-05-09T08:01:25.825Z,11.80
2024-05-09T08:03:56.487Z,10.65
2024-05-09T08:06:27.156Z,10.57
2024-05-09T08:08:59.168Z,11.35
2024-05-09T08:11:28.123Z,10.05
2024-05-09T08:13:57.999Z,9.70
2024-05-09T08:16:25.527Z,10.95
2024-05-09T08:18:55.602Z,10.57
2024-05-09T08:21:26.678Z,10.00
2024-05-09T08:23:56.664Z,11.27
2024-05-09T08:26:23.976Z,10.75
2024-05-09T08:28:53.866Z,10.20
2024-05-09T08:31:21.257Z,10.95
2024-05-09T08:33:51.780Z,10.45
2024-05-09T08:36:20.090Z,10.85
2024-05-09T08:38:52.736Z,10.20
2024-05-09T08:41:20.225Z,10.15
2024-05-09T08:43:50.167Z,9.63
2024-05-09T08:46:18.865Z,10.60
2024-05-09T08:48:50.102Z,9.65
2024-05-09T08:51:17.497Z,8.65
2024-05-09T08:53:47.447Z,10.02
2024-05-09T08:56:17.955Z,8.82
2024-05-09T08:58:48.091Z,9.20
2024-05-09T09:01:16.625Z,9.07
2024-05-09T09:03:46.945Z,9.73
2024-05-09T09:06:18.164Z,9.50
2024-05-09T09:08:48.509Z,8.10
2024-05-09T09:11:18.791Z,8.63
2024-05-09T09:13:48.759Z,8.57
2024-05-09T09:16:17.101Z,8.13
2024-05-09T09:18:48.163Z,7.78
2024-05-09T09:21:15.635Z,7.75
2024-05-09T09:23:46.577Z,7.72
2024-05-09T09:26:18.908Z,7.22
2024-05-09T09:28:49.092Z,7.70
2024-05-09T09:31:19.067Z,8.38
2024-05-09T09:33:49.714Z,8.55
2024-05-09T09:36:18.398Z,7.95
2024-05-09T09:38:50.946Z,9.35
2024-05-09T09:41:25.646Z,9.73
2024-05-09T09:43:56.775Z,9.82
2024-05-09T09:46:24.810Z,10.23
2024-05-09T09:48:55.195Z,10.95
2024-05-09T09:51:23.148Z,9.35
2024-05-09T09:53:55.916Z,9.57
2024-05-09T09:56:26.873Z,10.10
2024-05-09T09:58:58.721Z,9.55
2024-05-09T10:01:26.029Z,9.57
2024-05-09T10:03:56.667Z,9.90
2024-05-09T10:06:24.485Z,9.30
2024-05-09T10:08:54.772Z,10.50
2024-05-09T10:11:22.399Z,9.63
2024-05-09T10:13:55.256Z,10.30
2024-05-09T10:16:23.101Z,9.13
2024-05-09T10:18:53.477Z,10.02
2024-05-09T10:21:21.446Z,9.20
2024-05-09T10:24:02.499Z,8.77
2024-05-09T10:26:33.760Z,8.20
2024-05-09T10:29:15.140Z,8.07
2024-05-09T10:31:44.207Z,9.10
2024-05-09T10:34:21.027Z,8.65
2024-05-09T10:36:53.198Z,7.90
2024-05-09T10:39:23.692Z,9.43
2024-05-09T10:41:51.147Z,8.88
2024-05-09T10:44:24.859Z,9.43
2024-05-09T10:46:54.671Z,8.07
2024-05-09T10:49:25.146Z,8.30
2024-05-09T10:51:52.919Z,8.88
2024-05-09T10:54:23.013Z,9.10
2024-05-09T10:56:56.928Z,9.05
2024-05-09T10:59:36.945Z,8.88
2024-05-09T11:02:05.967Z,8.70
2024-05-09T11:04:36.925Z,9.45
2024-05-09T11:07:07.778Z,9.02
2024-05-09T11:09:39.031Z,9.05
2024-05-09T11:12:07.204Z,9.50
2024-05-09T11:14:40.029Z,9.00
2024-05-09T11:17:08.604Z,9.27
2024-05-09T11:19:41.728Z,9.38
2024-05-09T11:22:09.324Z,10.00
2024-05-09T11:24:39.400Z,10.68
2024-05-09T11:27:06.715Z,9.68
2024-05-09T11:29:43.319Z,10.10
2024-05-09T11:32:13.400Z,10.43
2024-05-09T11:34:44.231Z,10.38
2024-05-09T11:37:13.164Z,9.55
2024-05-09T11:39:43.456Z,9.10
2024-05-09T11:42:10.793Z,8.73
2024-05-09T11:44:43.291Z,8.93
2024-05-09T11:47:10.623Z,9.15
2024-05-09T11:49:40.806Z,10.02
2024-05-09T11:52:08.382Z,10.60
2024-05-09T11:54:38.376Z,10.43
2024-05-09T11:57:05.795Z,9.43
2024-05-09T11:59:35.703Z,9.65
2024-05-09T12:02:05.748Z,9.57
2024-05-09T12:04:35.959Z,9.48
2024-05-09T12:07:03.932Z,9.93
2024-05-09T12:09:34.285Z,10.38
2024-05-09T12:12:01.574Z,10.65
2024-05-09T12:14:31.450Z,11.95
2024-05-09T12:16:59.227Z,12.05
2024-05-09T12:19:31.794Z,12.55
2024-05-09T12:21:59.237Z,12.57
2024-05-09T12:24:30.507Z,12.45
2024-05-09T12:26:57.804Z,13.88
2024-05-09T12:29:28.150Z,12.75
2024-05-09T12:31:55.562Z,13.20
2024-05-09T12:34:25.576Z,12.77
2024-05-09T12:36:55.688Z,13.13
2024-05-09T12:39:25.731Z,12.98
2024-05-09T12:41:55.703Z,13.52
2024-05-09T12:44:23.123Z,12.85
2024-05-09T12:46:53.113Z,14.15
2024-05-09T12:49:24.367Z,13.52
2024-05-09T12:51:57.028Z,13.60
2024-05-09T12:54:24.323Z,13.73
2024-05-09T12:56:54.416Z,14.95
2024-05-09T12:59:21.668Z,13.18
2024-05-09T13:01:51.609Z,13.93
2024-05-09T13:04:19.384Z,14.73
2024-05-09T13:06:49.629Z,14.30
2024-05-09T13:09:20.076Z,14.13
2024-05-09T13:11:50.147Z,14.05
2024-05-09T13:14:17.532Z,13.52
2024-05-09T13:16:47.453Z,14.18
2024-05-09T13:19:14.885Z,13.65
2024-05-09T13:21:44.864Z,14.05
2024-05-09T13:24:12.208Z,13.68
2024-05-09T13:26:44.878Z,15.20
2024-05-09T13:29:12.179Z,14.90
2024-05-09T13:31:42.087Z,15.82
2024-05-09T13:34:11.955Z,15.13
2024-05-09T13:36:39.626Z,21.75
2024-05-09T13:39:09.671Z,19.65
2024-05-09T13:41:36.959Z,17.17
2024-05-09T13:44:09.693Z,16.23
2024-05-09T13:46:37.029Z,14.93
2024-05-09T13:49:09.481Z,20.33
2024-05-09T13:51:38.216Z,16.20
2024-05-09T13:54:08.133Z,15.63
2024-05-09T13:56:37.804Z,14.77
2024-05-09T13:59:10.707Z,16.88
2024-05-09T14:01:38.163Z,16.25
2024-05-09T14:04:09.873Z,16.08
2024-05-09T14:06:37.781Z,15.73
2024-05-09T14:09:09.700Z,15.13
2024-05-09T14:11:36.985Z,14.80
2024-05-09T14:14:09.643Z,14.85
2024-05-09T14:16:38.452Z,21.52
2024-05-09T14:19:08.684Z,21.60
2024-05-09T14:21:36.130Z,24.25
2024-05-09T14:24:06.367Z,19.77
2024-05-09T14:26:33.720Z,18.63
2024-05-09T14:29:03.702Z,17.98
2024-05-09T14:31:35.447Z,24.25
2024-05-09T14:34:06.399Z,21.02
2024-05-09T14:36:34.068Z,18.17
2024-05-09T14:39:04.038Z,19.20
2024-05-09T14:41:31.259Z,18.63
2024-05-09T14:44:01.151Z,16.40
2024-05-09T14:46:28.537Z,18.65
2024-05-09T14:49:01.302Z,18.30
2024-05-09T14:51:28.799Z,17.80
2024-05-09T14:53:58.744Z,16.23
2024-05-09T14:56:26.092Z,17.05
2024-05-09T14:58:57.182Z,14.23
2024-05-09T15:01:25.138Z,17.13
2024-05-09T15:03:56.848Z,13.98
2024-05-09T15:06:27.063Z,15.27
2024-05-09T15:08:59.677Z,14.68
2024-05-09T15:11:27.655Z,14.32
2024-05-09T15:13:57.646Z,13.32
2024-05-09T15:16:25.208Z,15.38
2024-05-09T15:18:55.587Z,19.92
2024-05-09T15:21:23.127Z,16.90
2024-05-09T15:23:55.937Z,12.98
2024-05-09T15:26:23.355Z,12.95
2024-05-09T15:28:53.282Z,13.82
2024-05-09T15:31:20.644Z,13.32
2024-05-09T15:33:50.842Z,13.80
2024-05-09T15:36:18.239Z,11.98
2024-05-09T15:38:48.292Z,15.25
2024-05-09T15:41:18.442Z,31.27
2024-05-09T15:43:48.460Z,16.23
2024-05-09T15:46:15.963Z,14.98
2024-05-09T15:48:46.145Z,13.70
2024-05-09T15:51:13.523Z,14.27
2024-05-09T15:53:43.804Z,15.57
2024-05-09T15:56:11.267Z,16.83
2024-05-09T15:58:43.856Z,13.63
2024-05-09T16:01:12.544Z,14.02
2024-05-09T16:03:42.903Z,13.18
2024-05-09T16:06:10.510Z,14.40
2024-05-09T16:08:40.567Z,14.60
2024-05-09T16:11:07.990Z,13.88
2024-05-09T16:13:38.004Z,14.65
2024-05-09T16:16:08.635Z,13.43
2024-05-09T16:18:39.288Z,13.60
2024-05-09T16:21:08.084Z,12.80
2024-05-09T16:23:40.442Z,13.73
2024-05-09T16:26:08.847Z,12.02
2024-05-09T16:28:39.647Z,13.25
2024-05-09T16:31:11.179Z,13.52
2024-05-09T16:33:41.609Z,14.05
2024-05-09T16:36:09.463Z,13.68
2024-05-09T16:38:40.150Z,12.75
2024-05-09T16:41:07.464Z,14.38
2024-05-09T16:43:37.677Z,14.18
2024-05-09T16:46:05.612Z,14.73
2024-05-09T16:48:40.796Z,16.33
2024-05-09T16:51:08.257Z,15.38
2024-05-09T16:53:38.507Z,16.70
2024-05-09T16:56:07.486Z,16.80
2024-05-09T16:58:37.688Z,15.88
2024-05-09T17:01:05.520Z,16.33
2024-05-09T17:03:38.706Z,18.95
2024-05-09T17:06:06.537Z,17.60
2024-05-09T17:08:37.673Z,18.67
2024-05-09T17:11:05.662Z,17.63
2024-05-09T17:13:42.195Z,17.35
2024-05-09T17:16:13.537Z,18.13
2024-05-09T17:18:48.419Z,17.63
2024-05-09T17:21:18.763Z,17.77
2024-05-09T17:23:46.493Z,17.10
2024-05-09T17:26:16.849Z,18.17
2024-05-09T17:28:44.379Z,18.23
2024-05-09T17:31:14.671Z,18.30
2024-05-09T17:33:45.073Z,18.75
2024-05-09T17:36:15.332Z,16.70
2024-05-09T17:38:42.905Z,17.90
2024-05-09T17:41:12.921Z,17.98
2024-05-09T17:43:40.426Z,18.85
2024-05-09T17:46:10.608Z,17.73
2024-05-09T17:48:38.166Z,17.60
2024-05-09T17:51:11.232Z,17.58
2024-05-09T17:53:40.066Z,19.30
2024-05-09T17:56:11.004Z,17.88
2024-05-09T17:58:38.508Z,18.65
2024-05-09T18:01:08.667Z,18.27
2024-05-09T18:03:36.350Z,18.98
2024-05-09T18:06:07.011Z,19.58
2024-05-09T18:08:37.086Z,18.70
2024-05-09T18:11:07.724Z,18.42
2024-05-09T18:13:37.530Z,19.58
2024-05-09T18:16:08.602Z,18.60
2024-05-09T18:18:36.197Z,18.33
2024-05-09T18:21:06.814Z,19.40
2024-05-09T18:23:37.263Z,18.35
2024-05-09T18:26:08.831Z,19.75
2024-05-09T18:28:36.370Z,19.60
2024-05-09T18:31:06.748Z,19.45
2024-05-09T18:33:34.657Z,19.95
2024-05-09T18:36:04.918Z,20.58
2024-05-09T18:38:32.439Z,20.17
2024-05-09T18:41:05.392Z,21.00
2024-05-09T18:43:38.506Z,20.25
2024-05-09T18:46:15.115Z,19.92
2024-05-09T18:48:42.813Z,19.85
2024-05-09T18:51:14.783Z,20.20
2024-05-09T18:53:44.598Z,18.88
2024-05-09T18:56:18.382Z,23.02
2024-05-09T18:58:46.765Z,21.05
2024-05-09T19:01:16.882Z,23.42
2024-05-09T19:03:44.692Z,20.90
2024-05-09T19:06:14.963Z,21.65
2024-05-09T19:08:42.384Z,20.05
2024-05-09T19:11:12.544Z,21.50
2024-05-09T19:13:42.756Z,21.30
2024-05-09T19:16:12.846Z,22.08
2024-05-09T19:18:40.926Z,21.92
2024-05-09T19:21:11.694Z,22.60
2024-05-09T19:23:46.832Z,22.13
2024-05-09T19:26:21.173Z,21.98
2024-05-09T19:28:52.368Z,21.42
2024-05-09T19:31:22.826Z,21.13
2024-05-09T19:33:51.872Z,22.67
2024-05-09T19:36:22.189Z,22.85
2024-05-09T19:38:51.592Z,23.27
2024-05-09T19:41:21.729Z,24.05
2024-05-09T19:43:51.870Z,24.73
2024-05-09T19:46:22.219Z,23.27
2024-05-09T19:48:50.171Z,24.20
2024-05-09T19:51:20.704Z,24.05
2024-05-09T19:53:48.411Z,23.42
2024-05-09T19:56:18.712Z,24.20
2024-05-09T19:58:46.387Z,24.08
2024-05-09T20:01:19.521Z,24.52
2024-05-09T20:03:47.577Z,24.60
2024-05-09T20:06:19.351Z,24.73
2024-05-09T20:08:46.834Z,21.92
2024-05-09T20:11:18.337Z,22.70
2024-05-09T20:13:45.920Z,23.60
2024-05-09T20:16:18.776Z,22.02
2024-05-09T20:18:46.603Z,21.73
2024-05-09T20:21:16.949Z,21.13
2024-05-09T20:23:46.166Z,20.83
2024-05-09T20:26:16.492Z,21.35
2024-05-09T20:28:46.333Z,21.42
2024-05-09T20:31:24.054Z,22.17
2024-05-09T20:33:51.985Z,22.92
2024-05-09T20:36:22.544Z,20.95
2024-05-09T20:38:50.157Z,20.10
2024-05-09T20:41:20.311Z,20.42
2024-05-09T20:43:47.899Z,23.20
2024-05-09T20:46:21.230Z,21.90
2024-05-09T20:48:49.643Z,20.80
2024-05-09T20:51:20.396Z,22.10
2024-05-09T20:53:48.205Z,21.85
2024-05-09T20:56:18.446Z,21.60
2024-05-09T20:58:46.079Z,20.85
2024-05-09T21:01:16.520Z,20.50
2024-05-09T21:03:47.918Z,21.55
2024-05-09T21:06:18.350Z,20.33
2024-05-09T21:08:46.251Z,22.33
2024-05-09T21:11:16.407Z,20.98
2024-05-09T21:13:44.011Z,21.42
2024-05-09T21:16:14.333Z,22.27
2024-05-09T21:18:41.953Z,20.83
2024-05-09T21:21:14.772Z,22.00
2024-05-09T21:23:42.524Z,20.50
2024-05-09T21:26:13.579Z,20.77
2024-05-09T21:28:41.037Z,21.10
2024-05-09T21:31:12.039Z,21.35
2024-05-09T21:33:39.670Z,20.80
2024-05-09T21:36:14.986Z,20.45
2024-05-09T21:38:43.086Z,20.70
2024-05-09T21:41:13.489Z,20.05
2024-05-09T21:43:40.933Z,20.38
2024-05-09T21:46:11.279Z,22.70
2024-05-09T21:48:38.983Z,21.17
2024-05-09T21:51:19.064Z,21.85
2024-05-09T21:53:46.844Z,21.95
2024-05-09T21:56:18.009Z,21.20
2024-05-09T21:58:46.676Z,22.02
2024-05-09T22:01:17.368Z,21.40
2024-05-09T22:03:45.439Z,19.52
2024-05-09T22:06:18.662Z,22.92
2024-05-09T22:08:46.254Z,23.10
2024-05-09T22:11:16.412Z,21.90
2024-05-09T22:13:44.029Z,22.50
2024-05-09T22:16:14.446Z,23.67
2024-05-09T22:18:44.858Z,25.33
2024-05-09T22:21:15.375Z,25.95
2024-05-09T22:23:45.545Z,23.17
2024-05-09T22:26:13.446Z,22.45
2024-05-09T22:28:43.599Z,24.00
2024-05-09T22:31:11.275Z,23.15
2024-05-09T22:33:44.730Z,22.13
2024-05-09T22:36:17.501Z,23.05
2024-05-09T22:38:47.616Z,22.60
2024-05-09T22:41:15.351Z,21.05
2024-05-09T22:43:45.523Z,21.27
2024-05-09T22:46:13.072Z,20.98
2024-05-09T22:48:43.416Z,20.58
2024-05-09T22:51:11.089Z,20.73
2024-05-09T22:53:44.081Z,21.38
2024-05-09T22:56:14.321Z,20.92
2024-05-09T22:58:44.824Z,21.52
2024-05-09T23:01:15.516Z,21.58
2024-05-09T23:03:49.083Z,23.75
2024-05-09T23:06:16.838Z,21.63
2024-05-09T23:08:49.715Z,21.45
2024-05-09T23:11:17.421Z,22.65
2024-05-09T23:13:51.608Z,21.83
2024-05-09T23:16:19.257Z,22.67
2024-05-09T23:18:49.745Z,23.38
2024-05-09T23:21:20.028Z,21.58
2024-05-09T23:23:50.166Z,21.67
2024-05-09T23:26:20.140Z,22.52
2024-05-09T23:28:48.340Z,22.13
2024-05-09T23:31:18.559Z,22.98
2024-05-09T23:33:46.746Z,21.42
2024-05-09T23:36:17.116Z,22.83
2024-05-09T23:38:44.598Z,22.23
2024-05-09T23:41:17.361Z,22.05
2024-05-09T23:43:45.019Z,22.15
2024-05-09T23:46:15.325Z,22.33
2024-05-09T23:48:43.005Z,23.08
2024-05-09T23:51:13.223Z,21.60
2024-05-09T23:53:45.292Z,24.02
2024-05-09T23:56:21.537Z,23.15
2024-05-09T23:58:49.214Z,24.33
